Time;durP1;ratioP1;P1;durP2;ratioP2;P2;SDS_P1;SDS_P2;PMS_P1;PMS_P2;Temp;Humidity;BMP_temperature;BMP_pressure;BME280_temperature;BME280_humidity;BME280_pressure;Samples;Min_cycle;Max_cycle;Signal;HPM_P1;HPM_P2
2021/05/24 00:00:30;;;;;;;7.07;4.73;;;;;;;-144.99;94.01;52362.50;5105084;27;20215;-61
2021/05/24 00:02:57;;;;;;;7.20;4.93;;;;;;;-144.99;94.07;52391.03;5113371;28;20245;-62
2021/05/24 00:05:29;;;;;;;6.83;5.27;;;;;;;-144.99;93.94;52384.91;5106391;28;20218;-63
2021/05/24 00:07:58;;;;;;;9.53;4.97;;;;;;;-144.99;93.91;52362.50;5110969;27;20238;-64
2021/05/24 00:10:27;;;;;;;7.30;5.10;;;;;;;-144.99;94.07;52374.72;5104060;28;20214;-63
2021/05/24 00:12:55;;;;;;;8.13;6.07;;;;;;;-144.99;94.15;52378.78;5107014;28;20211;-63
2021/05/24 00:15:24;;;;;;;6.63;5.30;;;;;;;-144.99;94.25;52407.31;5110204;28;20464;-61
2021/05/24 00:17:51;;;;;;;4.60;4.10;;;;;;;-144.99;94.14;52399.19;5105998;28;20228;-61
2021/05/24 00:20:20;;;;;;;5.80;4.77;;;;;;;-144.99;94.08;52415.47;5100612;28;20204;-60
2021/05/24 00:22:47;;;;;;;6.83;4.37;;;;;;;-144.99;94.08;52374.72;5111336;28;20231;-61
2021/05/24 00:25:19;;;;;;;9.10;4.80;;;;;;;-144.99;94.29;52391.03;5109061;28;20219;-61
2021/05/24 00:27:45;;;;;;;8.77;5.10;;;;;;;-144.99;94.10;52419.56;5109633;28;20647;-61
2021/05/24 00:30:18;;;;;;;8.53;7.67;;;;;;;-144.99;94.13;52386.94;5105703;28;20669;-61
2021/05/24 00:32:49;;;;;;;16.03;6.67;;;;;;;-144.99;94.18;52350.25;5108663;28;20578;-61
2021/05/24 00:35:16;;;;;;;6.10;5.50;;;;;;;-144.99;94.24;52407.31;5112030;28;20203;-62
2021/05/24 00:37:42;;;;;;;7.67;5.97;;;;;;;-144.99;94.03;52354.34;5105956;28;20235;-61
2021/05/24 00:40:12;;;;;;;8.57;4.50;;;;;;;-144.99;94.17;52399.19;5106663;27;20206;-60
2021/05/24 00:42:41;;;;;;;6.90;4.63;;;;;;;-144.99;93.91;52423.63;5106970;28;20685;-62
2021/05/24 00:45:08;;;;;;;10.40;6.03;;;;;;;-144.99;93.83;52431.78;5105296;28;20233;-60
2021/05/24 00:47:34;;;;;;;9.20;4.87;;;;;;;-144.99;94.09;52378.78;5112642;28;20223;-59
2021/05/24 00:50:00;;;;;;;7.33;4.80;;;;;;;-144.99;93.94;52423.63;5104855;28;20647;-61
2021/05/24 00:52:29;;;;;;;7.03;4.87;;;;;;;-144.99;93.88;52374.72;5112624;28;20227;-61
2021/05/24 00:55:01;;;;;;;8.73;5.07;;;;;;;-144.99;93.96;52407.31;5109385;28;20203;-60
2021/05/24 00:57:31;;;;;;;8.60;5.20;;;;;;;-144.99;93.90;52431.78;5103994;28;20351;-60
2021/05/24 01:00:00;;;;;;;9.57;4.90;;;;;;;-144.99;93.76;52378.78;5112903;28;20210;-62
2021/05/24 01:02:26;;;;;;;9.30;5.27;;;;;;;-144.99;93.82;52374.72;5111576;28;20422;-60
2021/05/24 01:04:55;;;;;;;6.47;4.97;;;;;;;-144.99;93.87;52378.78;5104114;28;20208;-60
2021/05/24 01:07:21;;;;;;;5.00;3.93;;;;;;;-144.99;93.83;52407.31;5111582;28;20223;-59
2021/05/24 01:09:47;;;;;;;6.00;4.43;;;;;;;-144.99;93.82;52374.72;5109296;27;20203;-62
2021/05/24 01:12:16;;;;;;;10.00;5.03;;;;;;;-144.99;93.75;52382.88;5108797;28;20199;-60
2021/05/24 01:14:43;;;;;;;7.70;4.40;;;;;;;-144.99;93.59;52362.50;5111724;28;20693;-61
2021/05/24 01:17:09;;;;;;;8.27;4.47;;;;;;;-144.99;93.64;52382.88;5111316;28;20227;-61
2021/05/24 01:19:43;;;;;;;7.77;4.77;;;;;;;-144.99;93.54;52393.06;5101816;28;20276;-62
2021/05/24 01:22:16;;;;;;;6.30;4.40;;;;;;;-144.99;93.49;52374.72;5099752;28;20224;-62
2021/05/24 01:24:46;;;;;;;5.90;4.27;;;;;;;-144.99;93.33;52386.94;5104533;28;20679;-63
2021/05/24 01:27:12;;;;;;;9.53;4.97;;;;;;;-144.99;93.37;52386.94;5110840;28;20234;-61
2021/05/24 01:29:38;;;;;;;8.20;3.97;;;;;;;-144.99;93.34;52382.88;5098799;28;20211;-60
2021/05/24 01:32:05;;;;;;;9.67;4.93;;;;;;;-144.99;93.26;52384.91;5111930;28;20200;-59
2021/05/24 01:34:33;;;;;;;5.83;4.10;;;;;;;-144.99;93.42;52411.41;5112028;28;20746;-59
2021/05/24 01:37:00;;;;;;;5.57;4.20;;;;;;;-144.99;93.27;52366.56;5106623;28;20226;-60
2021/05/24 01:39:30;;;;;;;10.37;5.07;;;;;;;-144.99;93.16;52384.91;5102423;28;20211;-61
2021/05/24 01:41:57;;;;;;;6.37;3.50;;;;;;;-144.99;93.02;52382.88;5104826;28;20353;-61
2021/05/24 01:44:34;;;;;;;5.60;3.87;;;;;;;-144.99;92.92;52378.78;5107804;28;20407;-61
2021/05/24 01:47:00;;;;;;;4.33;3.73;;;;;;;-144.99;93.10;52415.47;5108244;28;20696;-60
2021/05/24 01:49:27;;;;;;;8.87;4.37;;;;;;;-144.99;92.89;52407.31;5103245;28;20464;-61
2021/05/24 01:51:53;;;;;;;4.57;3.73;;;;;;;-144.99;92.81;52364.53;5106118;28;20691;-60
2021/05/24 01:54:19;;;;;;;9.20;5.63;;;;;;;-144.99;92.58;52386.94;5111353;28;20268;-60
2021/05/24 01:56:46;;;;;;;5.43;4.20;;;;;;;-144.99;92.61;52391.03;5106586;28;20235;-61
2021/05/24 01:59:15;;;;;;;6.13;3.90;;;;;;;-144.99;92.61;52423.63;5108480;28;20212;-60
2021/05/24 02:01:45;;;;;;;4.17;3.73;;;;;;;-144.99;92.44;52378.78;5105143;28;20231;-59
2021/05/24 02:04:17;;;;;;;8.37;4.73;;;;;;;-144.99;92.28;52386.94;5104462;28;20208;-60
2021/05/24 02:06:46;;;;;;;8.70;3.17;;;;;;;-144.99;92.06;52358.41;5104248;28;20400;-58
2021/05/24 02:09:12;;;;;;;8.53;3.33;;;;;;;-144.99;91.85;52362.50;5111253;28;20227;-59
2021/05/24 02:11:38;;;;;;;7.23;3.63;;;;;;;-144.99;91.67;52395.09;5107128;28;20659;-59
2021/05/24 02:16:52;;;;;;;7.37;3.60;;;;;;;-144.99;91.10;52393.06;5047554;28;20233;-58
2021/05/24 02:19:22;;;;;;;7.37;3.30;;;;;;;-144.99;90.75;52370.63;5048590;28;20584;-57
2021/05/24 02:21:53;;;;;;;8.00;4.27;;;;;;;-144.99;90.45;52423.63;5048313;28;20224;-58
2021/05/24 02:24:22;;;;;;;9.03;3.67;;;;;;;-144.99;90.36;52370.63;5050292;28;20220;-61
2021/05/24 02:26:51;;;;;;;6.53;3.77;;;;;;;-144.99;90.31;52386.94;5041505;28;20225;-60
2021/05/24 02:29:21;;;;;;;10.43;3.30;;;;;;;-144.99;89.89;52386.94;5049896;28;20210;-62
2021/05/24 02:31:50;;;;;;;9.73;3.27;;;;;;;-144.99;89.87;52386.94;5045740;28;20331;-60
2021/05/24 02:34:16;;;;;;;7.30;3.73;;;;;;;-144.99;89.67;52417.53;5050350;28;20206;-63
2021/05/24 02:36:45;;;;;;;7.10;3.50;;;;;;;-144.99;89.61;52391.03;5050403;28;20254;-63
2021/05/24 02:39:11;;;;;;;7.57;3.97;;;;;;;-144.99;89.51;52403.25;5040677;28;20217;-60
2021/05/24 02:41:41;;;;;;;5.03;2.70;;;;;;;-144.99;89.32;52419.56;5050587;28;20222;-58
2021/05/24 02:44:07;;;;;;;5.33;4.33;;;;;;;-144.99;89.04;52393.06;5046470;28;20327;-61
2021/05/24 02:46:35;;;;;;;7.03;4.87;;;;;;;-144.99;89.13;52382.88;5050635;28;20251;-60
2021/05/24 02:49:01;;;;;;;6.20;3.60;;;;;;;-144.99;88.93;52382.88;5048993;28;20232;-60
2021/05/24 02:51:27;;;;;;;9.17;3.90;;;;;;;-144.99;88.89;52419.56;5044637;28;20214;-61
2021/05/24 02:53:53;;;;;;;4.80;2.80;;;;;;;-144.99;88.75;52386.94;5042190;28;20216;-60
2021/05/24 02:56:19;;;;;;;3.70;2.93;;;;;;;-144.99;88.64;52374.72;5048291;28;20213;-61
2021/05/24 02:58:45;;;;;;;3.13;2.37;;;;;;;-144.99;88.32;52374.72;5048913;28;20205;-61
2021/05/24 03:01:11;;;;;;;9.33;4.33;;;;;;;-144.99;88.25;52366.56;5044224;28;20243;-61
2021/05/24 03:03:40;;;;;;;5.30;2.77;;;;;;;-144.99;88.25;52358.41;5047651;28;20220;-60
2021/05/24 03:06:06;;;;;;;8.53;3.20;;;;;;;-144.99;87.83;52374.72;5054185;28;20201;-62
2021/05/24 03:08:35;;;;;;;5.37;3.23;;;;;;;-144.99;87.75;52391.03;5046543;28;20229;-62
2021/05/24 03:11:01;;;;;;;5.40;3.73;;;;;;;-144.99;87.76;52352.28;5048541;28;20211;-62
2021/05/24 03:13:30;;;;;;;3.93;2.83;;;;;;;-144.99;87.46;52354.34;5049102;28;20209;-59
2021/05/24 03:15:57;;;;;;;6.37;2.37;;;;;;;-144.99;87.48;52358.41;5035525;28;20220;-59
2021/05/24 03:18:23;;;;;;;5.13;2.33;;;;;;;-144.99;87.35;52399.19;5038168;28;20522;-59
2021/05/24 03:20:50;;;;;;;3.93;2.50;;;;;;;-144.99;87.16;52399.19;5042032;28;20210;-58
2021/05/24 03:23:16;;;;;;;4.10;3.00;;;;;;;-144.99;87.01;52362.50;5049207;28;20208;-58
2021/05/24 03:25:42;;;;;;;6.87;3.00;;;;;;;-144.99;86.63;52358.41;5049119;28;20210;-58
2021/05/24 03:28:10;;;;;;;10.33;3.50;;;;;;;-144.99;86.54;52386.94;5041946;28;20233;-58
2021/05/24 03:30:36;;;;;;;3.57;2.07;;;;;;;-144.99;86.32;52419.56;5047233;28;20315;-59
2021/05/24 03:33:06;;;;;;;6.20;2.70;;;;;;;-144.99;86.12;52409.38;5049030;28;20232;-58
2021/05/24 03:35:35;;;;;;;7.03;3.00;;;;;;;-144.99;85.97;52399.19;5049298;28;20212;-58
2021/05/24 03:38:02;;;;;;;5.57;2.80;;;;;;;-144.99;85.63;52374.72;5036313;28;20226;-57
2021/05/24 03:40:31;;;;;;;4.97;3.13;;;;;;;-144.99;85.69;52382.88;5041021;28;20201;-58
2021/05/24 03:43:00;;;;;;;12.20;3.50;;;;;;;-144.99;85.40;52370.63;5049062;28;20214;-58
2021/05/24 03:45:30;;;;;;;5.77;2.00;;;;;;;-144.99;85.10;52403.25;5047876;28;20209;-59
2021/05/24 03:47:59;;;;;;;4.67;2.80;;;;;;;-144.99;84.87;52391.03;5049169;28;20253;-59
2021/05/24 03:50:25;;;;;;;5.83;3.17;;;;;;;-144.99;84.70;52378.78;5043900;28;20209;-58
2021/05/24 03:52:52;;;;;;;3.50;2.00;;;;;;;-144.99;84.70;52391.03;5049041;28;20593;-58
2021/05/24 03:55:19;;;;;;;6.07;2.70;;;;;;;-144.99;84.42;52391.03;5045198;28;20209;-58
2021/05/24 03:57:46;;;;;;;6.13;2.50;;;;;;;-144.99;84.33;52362.50;5048220;28;20772;-58
2021/05/24 04:00:13;;;;;;;5.00;3.83;;;;;;;-144.99;84.12;52325.81;5046226;28;20210;-58
2021/05/24 04:02:42;;;;;;;4.80;2.50;;;;;;;-144.99;83.95;52382.88;5049719;28;20204;-59
2021/05/24 04:05:15;;;;;;;7.23;2.30;;;;;;;-144.99;83.83;52358.41;5052803;28;20606;-59
2021/05/24 04:07:47;;;;;;;3.63;1.80;;;;;;;-144.99;83.75;52393.06;5048365;28;20740;-59
2021/05/24 04:10:14;;;;;;;8.47;2.63;;;;;;;-144.99;83.73;52356.38;5035506;28;20210;-59
2021/05/24 04:12:44;;;;;;;2.83;2.23;;;;;;;-144.99;83.38;52346.19;5047727;28;20229;-59
2021/05/24 04:15:14;;;;;;;4.20;3.13;;;;;;;-144.99;83.18;52401.22;5042076;28;20218;-58
2021/05/24 04:17:44;;;;;;;3.70;2.10;;;;;;;-144.99;83.08;52374.72;5035835;28;20233;-60
2021/05/24 04:20:14;;;;;;;5.30;1.80;;;;;;;-144.99;82.92;52382.88;5048542;28;20251;-61
2021/05/24 04:22:40;;;;;;;5.77;2.40;;;;;;;-144.99;82.68;52366.56;5046362;28;20205;-60
2021/05/24 04:25:07;;;;;;;6.07;2.63;;;;;;;-144.99;82.76;52370.63;5048632;28;20209;-58
2021/05/24 04:27:43;;;;;;;3.93;2.30;;;;;;;-144.99;82.45;52358.41;5048213;28;20229;-60
2021/05/24 04:30:13;;;;;;;4.03;2.10;;;;;;;-144.99;82.31;52362.50;5049006;28;20219;-58
2021/05/24 04:32:39;;;;;;;6.03;2.37;;;;;;;-144.99;82.22;52350.25;5043800;28;20233;-58
2021/05/24 04:35:07;;;;;;;3.13;2.27;;;;;;;-144.99;82.00;52370.63;5046629;28;20214;-58
2021/05/24 04:37:39;;;;;;;4.83;2.03;;;;;;;-144.99;81.79;52419.56;5047986;28;20272;-58
2021/05/24 04:40:09;;;;;;;9.83;2.60;;;;;;;-144.99;81.86;52346.19;5044722;28;20214;-63
2021/05/24 04:42:37;;;;;;;4.37;2.43;;;;;;;-144.99;81.46;52354.34;5051546;28;20550;-62
2021/05/24 04:45:09;;;;;;;3.63;2.50;;;;;;;-144.99;81.61;52364.53;5050588;28;20225;-62
2021/05/24 04:47:35;;;;;;;3.97;1.93;;;;;;;-144.99;81.47;52354.34;5052122;28;20295;-62
2021/05/24 04:50:01;;;;;;;2.73;1.83;;;;;;;-144.99;81.25;52358.41;5046008;28;20217;-63
2021/05/24 04:52:27;;;;;;;4.10;2.13;;;;;;;-144.99;81.13;52344.16;5052073;28;20279;-62
2021/05/24 04:54:56;;;;;;;4.13;2.40;;;;;;;-144.99;80.55;52358.41;5048531;28;20213;-59
2021/05/24 04:57:22;;;;;;;5.23;2.40;;;;;;;-144.99;80.38;52344.16;5051004;28;20237;-56
2021/05/24 04:59:48;;;;;;;3.17;2.43;;;;;;;-144.99;80.22;52380.84;5052054;28;20213;-57
2021/05/24 05:02:18;;;;;;;8.30;3.23;;;;;;;-144.99;79.85;52382.88;5052366;28;20205;-57
2021/05/24 05:04:46;;;;;;;4.30;1.87;;;;;;;-144.99;79.24;52356.38;5056314;28;20236;-59
2021/05/24 05:07:15;;;;;;;4.77;1.50;;;;;;;-144.99;79.17;52378.78;5052021;28;20253;-59
2021/05/24 05:09:41;;;;;;;2.87;1.37;;;;;;;-144.99;78.83;52374.72;5046460;28;20593;-59
2021/05/24 05:12:10;;;;;;;4.17;2.17;;;;;;;-144.99;78.96;52376.75;5051690;28;20237;-59
2021/05/24 05:14:38;;;;;;;5.57;2.40;;;;;;;-144.99;78.54;52364.53;5049451;28;20209;-59
2021/05/24 05:17:07;;;;;;;3.50;2.67;;;;;;;-144.99;78.15;52354.34;5033725;28;20244;-59
2021/05/24 05:19:34;;;;;;;5.70;2.03;;;;;;;-144.99;77.97;52317.66;5050034;28;20560;-58
2021/05/24 05:22:03;;;;;;;5.33;1.73;;;;;;;-144.99;77.32;52333.94;5050260;28;20194;-59
2021/05/24 05:24:29;;;;;;;7.60;2.07;;;;;;;-144.99;77.36;52356.38;5051528;28;20214;-58
2021/05/24 05:26:58;;;;;;;2.70;1.63;;;;;;;-144.99;77.01;52325.81;5051196;28;20282;-59
2021/05/24 05:29:24;;;;;;;4.57;2.40;;;;;;;-144.99;77.05;52356.38;5048439;28;20225;-58
2021/05/24 05:31:50;;;;;;;2.27;1.80;;;;;;;-144.99;76.95;52360.44;5047472;28;20695;-58
2021/05/24 05:34:16;;;;;;;4.10;1.93;;;;;;;-144.99;76.67;52348.22;5050366;28;20221;-58
2021/05/24 05:36:46;;;;;;;5.83;1.90;;;;;;;-144.99;76.06;52386.94;5048075;28;20221;-59
2021/05/24 05:39:12;;;;;;;5.33;1.60;;;;;;;-144.99;76.32;52346.19;5047335;28;20209;-58
2021/05/24 05:41:38;;;;;;;4.33;1.83;;;;;;;-144.99;76.18;52268.72;5051538;28;20205;-59
2021/05/24 05:44:07;;;;;;;4.50;2.70;;;;;;;-144.99;75.40;52309.50;5049891;28;20210;-60
2021/05/24 05:46:34;;;;;;;3.70;1.50;;;;;;;-144.99;74.64;52338.03;5049307;28;20287;-61
2021/05/24 05:49:00;;;;;;;3.30;2.30;;;;;;;-144.99;74.51;52354.34;5049586;28;20209;-61
2021/05/24 05:51:27;;;;;;;5.30;2.13;;;;;;;-144.99;73.17;52309.50;5051511;28;20213;-58
2021/05/24 05:53:56;;;;;;;7.73;2.80;;;;;;;-144.99;73.13;52305.41;5049540;28;20221;-58
2021/05/24 05:56:25;;;;;;;4.23;1.67;;;;;;;-144.99;72.04;52329.88;5047762;28;20250;-58
2021/05/24 05:58:51;;;;;;;3.53;1.37;;;;;;;-144.99;71.33;52311.53;5046380;28;20209;-58
2021/05/24 06:01:17;;;;;;;3.63;1.77;;;;;;;-144.99;70.56;52346.19;5047225;28;20300;-58
2021/05/24 06:03:43;;;;;;;2.20;1.53;;;;;;;-144.99;70.80;52323.75;5051358;28;20213;-59
2021/05/24 06:06:12;;;;;;;3.00;1.23;;;;;;;-144.99;69.46;52336.00;5055129;28;20201;-62
2021/05/24 06:08:43;;;;;;;2.87;1.20;;;;;;;-144.99;69.14;52313.56;5048015;28;20222;-62
2021/05/24 06:11:10;;;;;;;2.43;1.37;;;;;;;-144.99;68.70;52325.81;5045376;28;20206;-61
2021/05/24 06:13:39;;;;;;;2.77;1.30;;;;;;;-144.99;67.27;52333.94;5050731;28;20651;-61
2021/05/24 06:16:06;;;;;;;3.27;1.40;;;;;;;-144.99;68.28;52317.66;5037886;28;20626;-61
2021/05/24 06:18:35;;;;;;;3.50;1.33;;;;;;;-144.99;68.13;52315.59;5042624;28;20221;-60
2021/05/24 06:21:01;;;;;;;3.57;1.40;;;;;;;-144.99;67.74;52358.41;5047870;28;20341;-63
2021/05/24 06:23:28;;;;;;;3.73;1.67;;;;;;;-144.99;68.24;52293.19;5049782;28;20296;-62
2021/05/24 06:25:56;;;;;;;4.07;1.03;;;;;;;-144.99;68.13;52338.03;5050961;28;20287;-63
2021/05/24 06:28:23;;;;;;;1.73;1.63;;;;;;;-144.99;68.32;52313.56;5049929;28;20691;-62
2021/05/24 06:30:52;;;;;;;2.57;1.30;;;;;;;-144.99;68.52;52293.19;5047933;28;20348;-63
2021/05/24 06:33:18;;;;;;;2.80;1.33;;;;;;;-144.99;69.15;52366.56;5050279;28;20221;-62
2021/05/24 06:35:44;;;;;;;3.97;1.13;;;;;;;-144.99;69.16;52325.81;5044169;28;20213;-61
2021/05/24 06:38:13;;;;;;;3.13;1.40;;;;;;;-144.99;69.33;52354.34;5050068;28;20226;-59
2021/05/24 06:40:39;;;;;;;4.40;2.13;;;;;;;-144.99;68.16;52325.81;5051373;28;20214;-59
2021/05/24 06:43:08;;;;;;;5.40;1.40;;;;;;;-144.99;67.76;52309.50;5050322;28;20622;-59
2021/05/24 06:45:38;;;;;;;5.47;1.87;;;;;;;-144.99;66.68;52309.50;5047717;28;20204;-60
2021/05/24 06:48:05;;;;;;;1.70;1.40;;;;;;;-144.99;66.18;52301.34;5044299;28;20622;-60
2021/05/24 06:50:31;;;;;;;4.67;1.23;;;;;;;-144.99;65.76;52305.41;5050518;28;20287;-59
2021/05/24 06:53:00;;;;;;;3.77;2.27;;;;;;;-144.99;65.17;52325.81;5045403;28;20230;-60
2021/05/24 06:55:29;;;;;;;3.63;1.17;;;;;;;-144.99;65.15;52342.09;5044909;28;20210;-60
2021/05/24 06:57:55;;;;;;;2.33;1.40;;;;;;;-144.99;65.26;52342.09;5048887;28;20230;-60
2021/05/24 07:00:24;;;;;;;4.07;1.23;;;;;;;-144.99;64.03;52280.97;5049987;28;20207;-60
2021/05/24 07:02:50;;;;;;;3.17;0.87;;;;;;;-144.99;63.67;52293.19;5042559;28;20301;-59
2021/05/24 07:05:17;;;;;;;2.63;1.20;;;;;;;-144.99;63.11;52325.81;5053783;28;20205;-59
2021/05/24 07:07:43;;;;;;;3.33;0.80;;;;;;;-144.99;63.81;52301.34;5047458;28;20243;-59
2021/05/24 07:10:10;;;;;;;1.63;0.80;;;;;;;-144.99;62.90;52280.97;5047107;28;20210;-58
2021/05/24 07:12:36;;;;;;;1.47;0.90;;;;;;;-144.99;62.64;52260.56;5049223;28;20405;-59
2021/05/24 07:15:04;;;;;;;2.10;0.77;;;;;;;-144.99;61.60;52276.88;5044428;28;20214;-60
2021/05/24 07:17:30;;;;;;;3.50;1.00;;;;;;;-144.99;60.45;52309.50;5034763;28;21040;-61
2021/05/24 07:20:00;;;;;;;3.80;2.53;;;;;;;-144.99;60.71;52268.72;5046211;28;20683;-60
2021/05/24 07:22:26;;;;;;;3.80;1.00;;;;;;;-144.99;60.91;52276.88;5046151;28;20672;-61
2021/05/24 07:24:56;;;;;;;1.23;0.80;;;;;;;-144.99;61.31;52329.88;5049687;28;20217;-61
2021/05/24 07:27:22;;;;;;;1.70;0.80;;;;;;;-144.99;59.94;52244.28;5048718;28;20229;-59
2021/05/24 07:29:48;;;;;;;4.27;1.03;;;;;;;-144.99;60.79;52278.91;5048530;28;20292;-59
2021/05/24 07:32:15;;;;;;;2.20;0.70;;;;;;;-144.99;61.07;52309.50;5047248;28;20255;-59
2021/05/24 07:34:46;;;;;;;1.67;1.00;;;;;;;-144.99;60.04;52297.25;5049270;28;20216;-60
2021/05/24 07:37:13;;;;;;;4.83;1.97;;;;;;;-144.99;60.53;52285.03;5049340;28;20252;-60
2021/05/24 07:39:42;;;;;;;3.17;1.30;;;;;;;-144.99;60.38;52329.88;5048492;28;20217;-60
2021/05/24 07:42:09;;;;;;;3.97;0.90;;;;;;;-144.99;59.97;52325.81;5040547;28;20598;-60
2021/05/24 07:44:36;;;;;;;4.47;0.93;;;;;;;-144.99;58.85;52276.88;5046516;28;20324;-59
2021/05/24 07:47:07;;;;;;;3.67;0.90;;;;;;;-144.99;58.77;52256.50;5049241;28;20290;-59
2021/05/24 07:49:34;;;;;;;1.13;0.70;;;;;;;-144.99;58.45;52340.06;5049293;28;20582;-57
2021/05/24 07:52:00;;;;;;;1.70;0.80;;;;;;;-144.99;58.80;52252.44;5046345;28;20308;-59
2021/05/24 07:54:30;;;;;;;2.53;0.83;;;;;;;-144.99;58.46;52276.88;5048822;28;20216;-58
2021/05/24 07:56:59;;;;;;;1.73;0.87;;;;;;;-144.99;58.09;52297.25;5045611;28;20236;-58
2021/05/24 07:59:28;;;;;;;3.30;1.20;;;;;;;-144.99;57.44;52244.28;5049208;28;20252;-60
2021/05/24 08:01:59;;;;;;;2.60;1.10;;;;;;;-144.99;57.24;52248.34;5049039;28;20197;-59
2021/05/24 08:04:25;;;;;;;3.07;0.90;;;;;;;-144.99;57.03;52301.34;5052484;28;20205;-61
2021/05/24 08:06:51;;;;;;;3.83;0.80;;;;;;;-144.99;56.45;52289.13;5048898;28;20291;-60
2021/05/24 08:09:17;;;;;;;2.20;1.13;;;;;;;-144.99;55.51;52234.09;5048084;28;20236;-59
2021/05/24 08:11:44;;;;;;;5.17;1.30;;;;;;;-144.99;55.80;52207.59;5048522;28;20224;-59
2021/05/24 08:14:15;;;;;;;4.27;0.57;;;;;;;-144.99;54.83;52242.22;5046102;28;20224;-59
2021/05/24 08:16:41;;;;;;;1.53;0.83;;;;;;;-144.99;53.98;52254.47;5040416;28;20260;-59
2021/05/24 08:19:12;;;;;;;1.77;0.93;;;;;;;-144.99;52.94;52272.81;5047662;28;20205;-64
2021/05/24 08:21:42;;;;;;;1.50;0.60;;;;;;;-144.99;53.13;52254.47;5051580;28;20209;-56
2021/05/24 08:24:09;;;;;;;1.03;0.70;;;;;;;-144.99;53.84;52244.28;5043587;28;20223;-60
2021/05/24 08:26:35;;;;;;;1.03;0.43;;;;;;;-144.99;54.05;52299.31;5053685;28;20233;-60
2021/05/24 08:29:05;;;;;;;1.53;0.70;;;;;;;-144.99;53.89;52272.81;5052391;28;20687;-61
2021/05/24 08:31:31;;;;;;;4.10;0.97;;;;;;;-144.99;53.69;52264.66;5050908;28;20203;-62
2021/05/24 08:34:00;;;;;;;1.80;0.40;;;;;;;-144.99;54.66;52291.16;5044987;28;20226;-60
2021/05/24 08:36:27;;;;;;;0.90;0.60;;;;;;;-144.99;55.15;52276.88;5052525;28;20220;-64
2021/05/24 08:38:53;;;;;;;3.40;0.93;;;;;;;-144.99;55.27;52285.03;5041527;28;20208;-64
2021/05/24 08:41:20;;;;;;;0.70;0.47;;;;;;;-144.99;53.70;52252.44;5064494;22;20210;-68
2021/05/24 08:43:46;;;;;;;1.47;0.70;;;;;;;-144.99;54.85;52272.81;5064353;28;20577;-67
2021/05/24 08:46:13;;;;;;;2.10;1.07;;;;;;;-144.99;54.47;52270.78;5076283;28;20654;-68
2021/05/24 08:48:42;;;;;;;2.37;1.10;;;;;;;-144.99;53.12;52285.03;5071453;28;20646;-67
2021/05/24 08:51:11;;;;;;;1.60;0.60;;;;;;;-144.99;53.18;52252.44;5072584;28;20213;-66
2021/05/24 08:53:39;;;;;;;4.10;0.70;;;;;;;-144.99;52.83;52311.53;5072834;28;20234;-67
2021/05/24 08:56:06;;;;;;;1.53;0.63;;;;;;;-144.99;53.53;52250.38;5072236;28;20214;-67
2021/05/24 08:58:35;;;;;;;2.17;1.10;;;;;;;-144.99;53.81;52240.19;5070630;28;20717;-68
2021/05/24 09:01:01;;;;;;;1.77;0.80;;;;;;;-144.99;53.58;52240.19;5069691;28;20201;-68
2021/05/24 09:03:36;;;;;;;5.80;1.40;;;;;;;-144.99;52.18;52215.75;5072036;28;20631;-69
2021/05/24 09:06:07;;;;;;;4.13;0.57;;;;;;;-144.99;51.81;52268.72;5073836;28;20284;-67
2021/05/24 09:08:38;;;;;;;2.57;0.87;;;;;;;-144.99;52.21;52232.03;5066816;28;20233;-68
2021/05/24 09:11:04;;;;;;;1.37;0.70;;;;;;;-144.99;51.18;52244.28;5072804;28;20288;-70
2021/05/24 09:13:35;;;;;;;7.77;1.30;;;;;;;-144.99;51.38;52227.97;5074404;28;20238;-69
2021/05/24 09:16:01;;;;;;;1.80;0.73;;;;;;;-144.99;51.37;52219.81;5072598;28;20267;-68
2021/05/24 09:18:34;;;;;;;1.47;0.60;;;;;;;-144.99;51.22;52258.53;5072181;28;20230;-67
2021/05/24 09:21:03;;;;;;;1.13;0.50;;;;;;;-144.99;50.44;52236.13;5073134;28;20235;-68
2021/05/24 09:23:30;;;;;;;1.10;0.60;;;;;;;-144.99;50.65;52248.34;5075213;28;20582;-67
2021/05/24 09:26:03;;;;;;;2.53;1.20;;;;;;;-144.99;50.11;52252.44;5072433;28;20366;-68
2021/05/24 09:28:43;;;;;;;2.17;0.70;;;;;;;-144.99;50.49;52223.88;5070080;28;20287;-69
2021/05/24 09:31:13;;;;;;;4.73;0.97;;;;;;;-144.99;50.20;52236.13;5071712;28;20207;-69
2021/05/24 09:33:42;;;;;;;0.77;0.30;;;;;;;-144.99;50.09;52256.50;5071904;28;20235;-70
2021/05/24 09:36:09;;;;;;;2.00;1.37;;;;;;;-144.99;49.26;52252.44;5072250;28;20211;-68
2021/05/24 09:38:37;;;;;;;0.53;0.30;;;;;;;-144.99;49.29;52213.69;5071629;28;20713;-69
2021/05/24 09:41:07;;;;;;;5.37;0.50;;;;;;;-144.99;48.58;52268.72;5068130;28;20678;-68
2021/05/24 09:43:40;;;;;;;2.07;1.27;;;;;;;-144.99;48.79;52234.09;5070186;28;20755;-68
2021/05/24 09:46:18;;;;;;;3.33;0.80;;;;;;;-144.99;49.67;52219.81;5068770;28;20204;-70
2021/05/24 09:48:47;;;;;;;4.67;0.70;;;;;;;-144.99;48.09;52240.19;5071586;28;20216;-68
2021/05/24 09:51:16;;;;;;;2.70;0.50;;;;;;;-144.99;48.65;52236.13;5071595;28;20330;-70
2021/05/24 09:53:55;;;;;;;3.43;1.50;;;;;;;-144.99;47.90;52211.66;5070692;28;20717;-68
2021/05/24 09:56:21;;;;;;;4.30;0.80;;;;;;;-144.99;47.89;52187.19;5071784;28;20215;-68
2021/05/24 09:58:58;;;;;;;2.47;0.57;;;;;;;-144.99;47.77;52236.13;5071214;28;20264;-69
2021/05/24 10:01:31;;;;;;;1.03;0.40;;;;;;;-144.99;47.33;52203.50;5070960;28;20219;-68
2021/05/24 10:03:59;;;;;;;1.87;0.70;;;;;;;-144.99;47.34;52201.47;5070286;28;20211;-69
2021/05/24 10:06:25;;;;;;;1.30;0.40;;;;;;;-144.99;46.59;52207.59;5072847;28;20211;-68
2021/05/24 10:08:56;;;;;;;1.73;0.63;;;;;;;-144.99;46.44;52225.94;5067898;28;20210;-69
2021/05/24 10:11:25;;;;;;;2.07;0.63;;;;;;;-144.99;46.73;52227.97;5070606;28;20753;-70
2021/05/24 10:13:55;;;;;;;3.00;0.70;;;;;;;-144.99;45.92;52187.19;5062716;28;20587;-69
2021/05/24 10:16:21;;;;;;;2.37;1.00;;;;;;;-144.99;46.52;52203.50;5065503;28;20790;-69
2021/05/24 10:18:48;;;;;;;4.73;0.60;;;;;;;-144.99;44.48;52227.97;5070864;28;20219;-67
2021/05/24 10:21:15;;;;;;;1.90;0.43;;;;;;;-144.99;44.77;52187.19;5068703;28;20216;-67
2021/05/24 10:23:41;;;;;;;1.07;0.30;;;;;;;-144.99;44.30;52183.13;5070102;28;20230;-67
2021/05/24 10:26:12;;;;;;;0.80;0.80;;;;;;;-144.99;44.48;52191.28;5072190;28;20278;-67
2021/05/24 10:28:39;;;;;;;1.77;0.90;;;;;;;-144.99;44.76;52219.81;5069740;28;20228;-68
2021/05/24 10:31:16;;;;;;;3.40;0.97;;;;;;;-144.99;44.50;52207.59;5070935;28;20205;-69
2021/05/24 10:33:45;;;;;;;0.83;0.53;;;;;;;-144.99;44.44;52248.34;5069983;28;20767;-67
2021/05/24 10:36:23;;;;;;;0.83;0.37;;;;;;;-144.99;45.15;52252.44;5070341;28;20205;-69
2021/05/24 10:39:29;;;;;;;1.20;0.40;;;;;;;-144.99;44.79;52217.78;5069737;28;20299;-68
2021/05/24 10:42:02;;;;;;;2.80;0.50;;;;;;;-144.99;44.59;52154.59;5070265;28;20287;-68
2021/05/24 10:44:40;;;;;;;2.50;0.53;;;;;;;-144.99;43.42;52156.63;5069379;28;20209;-68
2021/05/24 10:47:30;;;;;;;2.70;0.60;;;;;;;-144.99;42.59;52162.75;5074795;28;20257;-67
2021/05/24 10:50:05;;;;;;;4.37;0.60;;;;;;;-144.99;42.37;52207.59;5058401;28;20269;-66
2021/05/24 10:52:34;;;;;;;1.57;0.50;;;;;;;-144.99;42.56;52183.13;5069937;28;20743;-67
2021/05/24 10:55:04;;;;;;;3.40;1.37;;;;;;;-144.99;43.12;52146.44;5070541;28;20223;-68
2021/05/24 10:57:31;;;;;;;0.77;0.40;;;;;;;-144.99;42.54;52134.22;5069079;28;20231;-68
2021/05/24 11:00:00;;;;;;;2.37;0.70;;;;;;;-144.99;41.69;52142.38;5070403;28;20248;-69
2021/05/24 11:02:35;;;;;;;1.90;0.70;;;;;;;-144.99;43.23;52136.25;5070141;28;20207;-67
2021/05/24 11:05:07;;;;;;;3.27;0.40;;;;;;;-144.99;41.24;52156.63;5078923;28;20224;-67
2021/05/24 11:07:35;;;;;;;1.07;0.73;;;;;;;-144.99;41.26;52136.25;5067698;28;20249;-68
2021/05/24 11:10:23;;;;;;;2.07;1.27;;;;;;;-144.99;41.31;52158.66;5070340;28;20251;-67
2021/05/24 11:12:52;;;;;;;2.97;0.60;;;;;;;-144.99;41.01;52101.59;5060469;28;20234;-68
2021/05/24 11:15:20;;;;;;;2.93;1.00;;;;;;;-144.99;39.74;52138.28;5070719;28;20242;-68
2021/05/24 11:18:29;;;;;;;0.80;0.80;;;;;;;-144.99;39.30;52193.31;5070033;28;20230;-68
2021/05/24 11:21:20;;;;;;;1.13;0.17;;;;;;;-144.99;40.03;52170.91;5069090;28;20735;-68
2021/05/24 11:26:40;;;;;;;4.00;1.63;;;;;;;-144.99;39.55;52146.44;5029647;28;20250;-68
2021/05/24 11:29:19;;;;;;;2.53;1.10;;;;;;;-144.99;39.99;52215.75;5068708;28;20622;-69